sensor_id;sensor_type;location;lat;lon;timestamp;temperature;humidity
18191;DHT22;47004;51.366;12.348;2022-10-22T00:01:37;13.00;99.90
18191;DHT22;47004;51.366;12.348;2022-10-22T00:03:41;12.90;99.90
18191;DHT22;47004;51.366;12.348;2022-10-22T00:05:42;12.90;99.90
18191;DHT22;47004;51.366;12.348;2022-10-22T00:07:44;13.00;99.90
18191;DHT22;47004;51.366;12.348;2022-10-22T00:09:46;13.00;99.90
18191;DHT22;47004;51.366;12.348;2022-10-22T00:11:48;13.00;99.90
18191;DHT22;47004;51.366;12.348;2022-10-22T00:13:50;13.00;99.90
18191;DHT22;47004;51.366;12.348;2022-10-22T00:15:52;13.00;99.90
18191;DHT22;47004;51.366;12.348;2022-10-22T00:17:54;13.10;99.90
18191;DHT22;47004;51.366;12.348;2022-10-22T00:19:57;13.00;99.90
18191;DHT22;47004;51.366;12.348;2022-10-22T00:21:59;13.00;99.90
18191;DHT22;47004;51.366;12.348;2022-10-22T00:24:05;13.10;99.90
18191;DHT22;47004;51.366;12.348;2022-10-22T00:26:07;13.10;99.90
18191;DHT22;47004;51.366;12.348;2022-10-22T00:28:09;13.10;99.90
18191;DHT22;47004;51.366;12.348;2022-10-22T00:30:12;13.00;99.90
18191;DHT22;47004;51.366;12.348;2022-10-22T00:32:14;13.10;99.90
18191;DHT22;47004;51.366;12.348;2022-10-22T00:34:16;13.10;99.90
18191;DHT22;47004;51.366;12.348;2022-10-22T00:36:21;13.10;99.90
18191;DHT22;47004;51.366;12.348;2022-10-22T00:38:23;13.10;99.90
18191;DHT22;47004;51.366;12.348;2022-10-22T00:40:25;13.10;99.90
18191;DHT22;47004;51.366;12.348;2022-10-22T00:42:29;13.10;99.90
18191;DHT22;47004;51.366;12.348;2022-10-22T00:45:09;13.10;99.90
18191;DHT22;47004;51.366;12.348;2022-10-22T00:47:15;13.10;99.90
18191;DHT22;47004;51.366;12.348;2022-10-22T00:49:17;13.40;99.90
18191;DHT22;47004;51.366;12.348;2022-10-22T00:51:22;13.10;99.90
18191;DHT22;47004;51.366;12.348;2022-10-22T00:53:27;13.10;99.90
18191;DHT22;47004;51.366;12.348;2022-10-22T00:55:32;13.10;99.90
18191;DHT22;47004;51.366;12.348;2022-10-22T00:57:34;13.40;99.90
18191;DHT22;47004;51.366;12.348;2022-10-22T00:59:37;13.10;99.90
18191;DHT22;47004;51.366;12.348;2022-10-22T01:01:39;13.20;99.90
18191;DHT22;47004;51.366;12.348;2022-10-22T01:03:41;13.10;99.90
18191;DHT22;47004;51.366;12.348;2022-10-22T01:05:45;13.10;99.90
18191;DHT22;47004;51.366;12.348;2022-10-22T01:07:52;13.20;99.90
18191;DHT22;47004;51.366;12.348;2022-10-22T01:10:02;13.20;99.90
18191;DHT22;47004;51.366;12.348;2022-10-22T01:12:17;13.20;99.90
18191;DHT22;47004;51.366;12.348;2022-10-22T01:14:27;13.20;99.90
18191;DHT22;47004;51.366;12.348;2022-10-22T01:16:35;13.20;99.90
18191;DHT22;47004;51.366;12.348;2022-10-22T01:18:44;13.20;99.90
18191;DHT22;47004;51.366;12.348;2022-10-22T01:20:59;13.20;99.90
18191;DHT22;47004;51.366;12.348;2022-10-22T01:23:18;13.20;99.90
18191;DHT22;47004;51.366;12.348;2022-10-22T01:25:29;13.20;99.90
18191;DHT22;47004;51.366;12.348;2022-10-22T01:27:41;13.30;99.90
18191;DHT22;47004;51.366;12.348;2022-10-22T01:29:48;13.20;99.90
18191;DHT22;47004;51.366;12.348;2022-10-22T01:31:53;13.20;99.90
18191;DHT22;47004;51.366;12.348;2022-10-22T01:33:58;13.20;99.90
18191;DHT22;47004;51.366;12.348;2022-10-22T01:36:02;13.30;99.90
18191;DHT22;47004;51.366;12.348;2022-10-22T01:38:08;13.20;99.90
18191;DHT22;47004;51.366;12.348;2022-10-22T01:40:14;13.20;99.90
18191;DHT22;47004;51.366;12.348;2022-10-22T01:42:16;13.40;99.90
18191;DHT22;47004;51.366;12.348;2022-10-22T01:44:25;13.30;99.90
18191;DHT22;47004;51.366;12.348;2022-10-22T01:46:29;13.20;99.90
18191;DHT22;47004;51.366;12.348;2022-10-22T01:48:39;13.30;99.90
18191;DHT22;47004;51.366;12.348;2022-10-22T01:50:52;13.20;99.90
18191;DHT22;47004;51.366;12.348;2022-10-22T01:53:17;13.30;99.90
18191;DHT22;47004;51.366;12.348;2022-10-22T01:55:26;13.30;99.90
18191;DHT22;47004;51.366;12.348;2022-10-22T01:57:40;13.30;99.90
18191;DHT22;47004;51.366;12.348;2022-10-22T01:59:51;13.30;99.90
18191;DHT22;47004;51.366;12.348;2022-10-22T02:02:03;13.20;99.90
18191;DHT22;47004;51.366;12.348;2022-10-22T02:04:11;13.30;99.90
18191;DHT22;47004;51.366;12.348;2022-10-22T02:06:18;13.30;99.90
18191;DHT22;47004;51.366;12.348;2022-10-22T02:08:24;13.20;99.90
18191;DHT22;47004;51.366;12.348;2022-10-22T02:10:28;13.20;99.90
18191;DHT22;47004;51.366;12.348;2022-10-22T02:12:31;13.20;99.90
18191;DHT22;47004;51.366;12.348;2022-10-22T02:14:36;13.30;99.90
18191;DHT22;47004;51.366;12.348;2022-10-22T02:16:43;13.30;99.90
18191;DHT22;47004;51.366;12.348;2022-10-22T02:18:49;13.30;99.90
18191;DHT22;47004;51.366;12.348;2022-10-22T02:20:52;13.30;99.90
18191;DHT22;47004;51.366;12.348;2022-10-22T02:22:56;13.30;99.90
18191;DHT22;47004;51.366;12.348;2022-10-22T02:24:59;13.30;99.90
18191;DHT22;47004;51.366;12.348;2022-10-22T02:27:06;13.30;99.90
18191;DHT22;47004;51.366;12.348;2022-10-22T02:29:13;13.30;99.90
18191;DHT22;47004;51.366;12.348;2022-10-22T02:31:19;13.30;99.90
18191;DHT22;47004;51.366;12.348;2022-10-22T02:33:25;13.30;99.90
18191;DHT22;47004;51.366;12.348;2022-10-22T02:35:29;13.30;99.90
18191;DHT22;47004;51.366;12.348;2022-10-22T02:37:32;13.30;99.90
18191;DHT22;47004;51.366;12.348;2022-10-22T02:39:35;13.90;99.90
18191;DHT22;47004;51.366;12.348;2022-10-22T02:41:38;13.30;99.90
18191;DHT22;47004;51.366;12.348;2022-10-22T02:43:41;13.30;99.90
18191;DHT22;47004;51.366;12.348;2022-10-22T02:45:44;13.30;99.90
18191;DHT22;47004;51.366;12.348;2022-10-22T02:47:46;13.30;99.90
18191;DHT22;47004;51.366;12.348;2022-10-22T02:49:48;13.30;99.90
18191;DHT22;47004;51.366;12.348;2022-10-22T02:51:51;13.30;99.90
18191;DHT22;47004;51.366;12.348;2022-10-22T02:53:53;13.30;99.90
18191;DHT22;47004;51.366;12.348;2022-10-22T02:55:55;13.30;99.90
18191;DHT22;47004;51.366;12.348;2022-10-22T02:57:57;13.30;99.90
18191;DHT22;47004;51.366;12.348;2022-10-22T02:59:59;13.30;99.90
18191;DHT22;47004;51.366;12.348;2022-10-22T03:02:01;13.20;99.90
18191;DHT22;47004;51.366;12.348;2022-10-22T03:04:06;13.20;99.90
18191;DHT22;47004;51.366;12.348;2022-10-22T03:06:08;13.20;99.90
18191;DHT22;47004;51.366;12.348;2022-10-22T03:08:11;13.20;99.90
18191;DHT22;47004;51.366;12.348;2022-10-22T03:10:13;13.20;99.90
18191;DHT22;47004;51.366;12.348;2022-10-22T03:12:15;13.30;99.90
18191;DHT22;47004;51.366;12.348;2022-10-22T03:14:17;13.20;99.90
18191;DHT22;47004;51.366;12.348;2022-10-22T03:16:19;13.20;99.90
18191;DHT22;47004;51.366;12.348;2022-10-22T03:18:21;13.20;99.90
18191;DHT22;47004;51.366;12.348;2022-10-22T03:20:23;13.20;99.90
18191;DHT22;47004;51.366;12.348;2022-10-22T03:22:28;13.20;99.90
18191;DHT22;47004;51.366;12.348;2022-10-22T03:24:35;13.20;99.90
18191;DHT22;47004;51.366;12.348;2022-10-22T03:26:39;13.20;99.90
18191;DHT22;47004;51.366;12.348;2022-10-22T03:28:42;13.10;99.90
18191;DHT22;47004;51.366;12.348;2022-10-22T03:30:46;13.10;99.90
18191;DHT22;47004;51.366;12.348;2022-10-22T03:32:48;13.10;99.90
18191;DHT22;47004;51.366;12.348;2022-10-22T03:34:50;13.10;99.90
18191;DHT22;47004;51.366;12.348;2022-10-22T03:36:52;13.10;99.90
18191;DHT22;47004;51.366;12.348;2022-10-22T03:38:54;13.20;99.90
18191;DHT22;47004;51.366;12.348;2022-10-22T03:40:58;13.10;99.90
18191;DHT22;47004;51.366;12.348;2022-10-22T03:43:00;13.10;99.90
18191;DHT22;47004;51.366;12.348;2022-10-22T03:45:02;13.10;99.90
18191;DHT22;47004;51.366;12.348;2022-10-22T03:47:04;13.10;99.90
18191;DHT22;47004;51.366;12.348;2022-10-22T03:49:06;13.10;99.90
18191;DHT22;47004;51.366;12.348;2022-10-22T03:51:08;13.10;99.90
18191;DHT22;47004;51.366;12.348;2022-10-22T03:53:11;13.10;99.90
18191;DHT22;47004;51.366;12.348;2022-10-22T03:55:13;13.00;99.90
18191;DHT22;47004;51.366;12.348;2022-10-22T03:57:16;13.10;99.90
18191;DHT22;47004;51.366;12.348;2022-10-22T03:59:18;13.00;99.90
18191;DHT22;47004;51.366;12.348;2022-10-22T04:01:20;13.00;99.90
18191;DHT22;47004;51.366;12.348;2022-10-22T04:03:22;13.00;99.90
18191;DHT22;47004;51.366;12.348;2022-10-22T04:05:24;13.10;99.90
18191;DHT22;47004;51.366;12.348;2022-10-22T04:07:26;13.00;99.90
18191;DHT22;47004;51.366;12.348;2022-10-22T04:09:30;13.00;99.90
18191;DHT22;47004;51.366;12.348;2022-10-22T04:11:32;13.00;99.90
18191;DHT22;47004;51.366;12.348;2022-10-22T04:13:35;13.00;99.90
18191;DHT22;47004;51.366;12.348;2022-10-22T04:15:37;13.00;99.90
18191;DHT22;47004;51.366;12.348;2022-10-22T04:17:39;13.00;99.90
18191;DHT22;47004;51.366;12.348;2022-10-22T04:19:41;13.10;99.90
18191;DHT22;47004;51.366;12.348;2022-10-22T04:21:43;13.00;99.90
18191;DHT22;47004;51.366;12.348;2022-10-22T04:23:46;13.10;99.90
18191;DHT22;47004;51.366;12.348;2022-10-22T04:25:48;13.10;99.90
18191;DHT22;47004;51.366;12.348;2022-10-22T04:27:50;13.00;99.90
18191;DHT22;47004;51.366;12.348;2022-10-22T04:29:53;13.00;99.90
18191;DHT22;47004;51.366;12.348;2022-10-22T04:31:55;13.10;99.90
18191;DHT22;47004;51.366;12.348;2022-10-22T04:33:59;13.10;99.90
18191;DHT22;47004;51.366;12.348;2022-10-22T04:36:05;13.00;99.90
18191;DHT22;47004;51.366;12.348;2022-10-22T04:38:08;13.00;99.90
18191;DHT22;47004;51.366;12.348;2022-10-22T04:40:11;13.00;99.90
18191;DHT22;47004;51.366;12.348;2022-10-22T04:42:13;13.00;99.90
18191;DHT22;47004;51.366;12.348;2022-10-22T04:44:15;13.10;99.90
18191;DHT22;47004;51.366;12.348;2022-10-22T04:46:19;13.00;99.90
18191;DHT22;47004;51.366;12.348;2022-10-22T04:48:21;13.00;99.90
18191;DHT22;47004;51.366;12.348;2022-10-22T04:50:23;13.10;99.90
18191;DHT22;47004;51.366;12.348;2022-10-22T04:52:24;13.20;99.90
18191;DHT22;47004;51.366;12.348;2022-10-22T04:54:26;13.00;99.90
18191;DHT22;47004;51.366;12.348;2022-10-22T04:56:29;13.00;99.90
18191;DHT22;47004;51.366;12.348;2022-10-22T04:58:32;13.00;99.90
18191;DHT22;47004;51.366;12.348;2022-10-22T05:00:33;13.00;99.90
18191;DHT22;47004;51.366;12.348;2022-10-22T05:02:37;13.00;99.90
18191;DHT22;47004;51.366;12.348;2022-10-22T05:04:39;13.00;99.90
18191;DHT22;47004;51.366;12.348;2022-10-22T05:06:41;13.00;99.90
18191;DHT22;47004;51.366;12.348;2022-10-22T05:08:43;13.00;99.90
18191;DHT22;47004;51.366;12.348;2022-10-22T05:10:45;13.00;99.90
18191;DHT22;47004;51.366;12.348;2022-10-22T05:12:47;13.00;99.90
18191;DHT22;47004;51.366;12.348;2022-10-22T05:14:49;13.00;99.90
18191;DHT22;47004;51.366;12.348;2022-10-22T05:16:52;13.00;99.90
18191;DHT22;47004;51.366;12.348;2022-10-22T05:18:57;13.00;99.90
18191;DHT22;47004;51.366;12.348;2022-10-22T05:20:59;13.00;99.90
18191;DHT22;47004;51.366;12.348;2022-10-22T05:23:01;13.00;99.90
18191;DHT22;47004;51.366;12.348;2022-10-22T05:25:03;13.00;99.90
18191;DHT22;47004;51.366;12.348;2022-10-22T05:27:06;13.00;99.90
18191;DHT22;47004;51.366;12.348;2022-10-22T05:29:10;13.10;99.90
18191;DHT22;47004;51.366;12.348;2022-10-22T05:31:13;12.70;99.90
18191;DHT22;47004;51.366;12.348;2022-10-22T05:33:15;13.10;99.90
18191;DHT22;47004;51.366;12.348;2022-10-22T05:35:19;13.00;99.90
18191;DHT22;47004;51.366;12.348;2022-10-22T05:37:21;13.00;99.90
18191;DHT22;47004;51.366;12.348;2022-10-22T05:39:23;13.00;99.90
18191;DHT22;47004;51.366;12.348;2022-10-22T05:41:26;13.10;99.90
18191;DHT22;47004;51.366;12.348;2022-10-22T05:43:28;13.10;99.90
18191;DHT22;47004;51.366;12.348;2022-10-22T05:45:30;12.90;99.90
18191;DHT22;47004;51.366;12.348;2022-10-22T05:47:32;13.10;99.90
18191;DHT22;47004;51.366;12.348;2022-10-22T05:49:34;13.00;99.90
18191;DHT22;47004;51.366;12.348;2022-10-22T05:51:38;13.00;99.90
18191;DHT22;47004;51.366;12.348;2022-10-22T05:53:41;13.00;99.90
18191;DHT22;47004;51.366;12.348;2022-10-22T05:55:43;13.00;99.90
18191;DHT22;47004;51.366;12.348;2022-10-22T05:57:45;13.00;99.90
18191;DHT22;47004;51.366;12.348;2022-10-22T05:59:48;13.00;99.90
18191;DHT22;47004;51.366;12.348;2022-10-22T06:01:50;12.80;99.90
18191;DHT22;47004;51.366;12.348;2022-10-22T06:03:53;13.00;99.90
18191;DHT22;47004;51.366;12.348;2022-10-22T06:06:02;13.00;99.90
18191;DHT22;47004;51.366;12.348;2022-10-22T06:08:08;13.00;99.90
18191;DHT22;47004;51.366;12.348;2022-10-22T06:10:14;13.30;99.90
18191;DHT22;47004;51.366;12.348;2022-10-22T06:12:17;13.10;99.90
18191;DHT22;47004;51.366;12.348;2022-10-22T06:14:20;13.30;99.90
18191;DHT22;47004;51.366;12.348;2022-10-22T06:16:22;13.10;99.90
18191;DHT22;47004;51.366;12.348;2022-10-22T06:18:24;13.10;99.90
18191;DHT22;47004;51.366;12.348;2022-10-22T06:20:26;13.10;99.90
18191;DHT22;47004;51.366;12.348;2022-10-22T06:22:28;13.10;99.90
18191;DHT22;47004;51.366;12.348;2022-10-22T06:24:31;13.10;99.90
18191;DHT22;47004;51.366;12.348;2022-10-22T06:26:33;13.10;99.90
18191;DHT22;47004;51.366;12.348;2022-10-22T06:28:36;13.10;99.90
18191;DHT22;47004;51.366;12.348;2022-10-22T06:30:40;12.90;99.90
18191;DHT22;47004;51.366;12.348;2022-10-22T06:32:42;13.10;99.90
18191;DHT22;47004;51.366;12.348;2022-10-22T06:34:44;13.10;99.90
18191;DHT22;47004;51.366;12.348;2022-10-22T06:36:47;13.10;99.90
18191;DHT22;47004;51.366;12.348;2022-10-22T06:38:51;13.10;99.90
18191;DHT22;47004;51.366;12.348;2022-10-22T06:40:54;13.20;99.90
18191;DHT22;47004;51.366;12.348;2022-10-22T06:42:58;13.20;99.90
18191;DHT22;47004;51.366;12.348;2022-10-22T06:45:00;13.20;99.90
18191;DHT22;47004;51.366;12.348;2022-10-22T06:49:15;13.20;99.90
18191;DHT22;47004;51.366;12.348;2022-10-22T06:51:18;13.20;99.90
18191;DHT22;47004;51.366;12.348;2022-10-22T06:53:20;13.30;99.90
18191;DHT22;47004;51.366;12.348;2022-10-22T06:55:22;13.30;99.90
18191;DHT22;47004;51.366;12.348;2022-10-22T06:57:25;13.30;99.90
18191;DHT22;47004;51.366;12.348;2022-10-22T06:59:27;13.30;99.90
18191;DHT22;47004;51.366;12.348;2022-10-22T07:01:31;13.30;99.90
18191;DHT22;47004;51.366;12.348;2022-10-22T07:03:33;13.40;99.90
18191;DHT22;47004;51.366;12.348;2022-10-22T07:05:35;13.40;99.90
18191;DHT22;47004;51.366;12.348;2022-10-22T07:07:37;13.40;99.90
18191;DHT22;47004;51.366;12.348;2022-10-22T07:09:39;13.40;99.90
18191;DHT22;47004;51.366;12.348;2022-10-22T07:11:45;13.50;99.90
18191;DHT22;47004;51.366;12.348;2022-10-22T07:13:49;13.50;99.90
18191;DHT22;47004;51.366;12.348;2022-10-22T07:15:51;13.50;99.90
18191;DHT22;47004;51.366;12.348;2022-10-22T07:17:54;13.60;99.90
18191;DHT22;47004;51.366;12.348;2022-10-22T07:19:56;13.60;99.90
18191;DHT22;47004;51.366;12.348;2022-10-22T07:22:00;13.80;99.90
18191;DHT22;47004;51.366;12.348;2022-10-22T07:24:04;13.70;99.90
18191;DHT22;47004;51.366;12.348;2022-10-22T07:26:06;13.70;99.90
18191;DHT22;47004;51.366;12.348;2022-10-22T07:28:09;13.70;99.90
18191;DHT22;47004;51.366;12.348;2022-10-22T07:30:12;13.80;99.90
18191;DHT22;47004;51.366;12.348;2022-10-22T07:32:14;13.90;99.90
18191;DHT22;47004;51.366;12.348;2022-10-22T07:34:16;13.80;99.90
18191;DHT22;47004;51.366;12.348;2022-10-22T07:36:18;14.00;99.90
18191;DHT22;47004;51.366;12.348;2022-10-22T07:38:20;14.00;99.90
18191;DHT22;47004;51.366;12.348;2022-10-22T07:40:22;14.00;99.90
18191;DHT22;47004;51.366;12.348;2022-10-22T07:42:24;14.00;99.90
18191;DHT22;47004;51.366;12.348;2022-10-22T07:44:26;14.00;99.90
18191;DHT22;47004;51.366;12.348;2022-10-22T07:46:29;14.10;99.90
18191;DHT22;47004;51.366;12.348;2022-10-22T07:48:31;14.10;99.90
18191;DHT22;47004;51.366;12.348;2022-10-22T07:50:37;14.20;99.90
18191;DHT22;47004;51.366;12.348;2022-10-22T07:52:40;14.10;99.90
18191;DHT22;47004;51.366;12.348;2022-10-22T07:54:42;14.20;99.90
18191;DHT22;47004;51.366;12.348;2022-10-22T07:56:44;14.20;99.90
18191;DHT22;47004;51.366;12.348;2022-10-22T07:58:46;14.30;99.90
18191;DHT22;47004;51.366;12.348;2022-10-22T08:00:48;14.30;99.90
18191;DHT22;47004;51.366;12.348;2022-10-22T08:02:51;14.30;99.90
18191;DHT22;47004;51.366;12.348;2022-10-22T08:04:53;14.30;99.90
18191;DHT22;47004;51.366;12.348;2022-10-22T08:06:56;14.20;99.90
18191;DHT22;47004;51.366;12.348;2022-10-22T08:08:58;14.30;99.90
18191;DHT22;47004;51.366;12.348;2022-10-22T08:11:03;14.20;99.90
18191;DHT22;47004;51.366;12.348;2022-10-22T08:13:05;14.30;99.90
18191;DHT22;47004;51.366;12.348;2022-10-22T08:15:09;14.30;99.90
18191;DHT22;47004;51.366;12.348;2022-10-22T08:17:11;14.20;99.90
18191;DHT22;47004;51.366;12.348;2022-10-22T08:19:14;14.30;99.90
18191;DHT22;47004;51.366;12.348;2022-10-22T08:21:18;14.30;99.90
18191;DHT22;47004;51.366;12.348;2022-10-22T08:23:20;14.30;99.90
18191;DHT22;47004;51.366;12.348;2022-10-22T08:25:22;14.20;99.90
18191;DHT22;47004;51.366;12.348;2022-10-22T08:27:24;14.30;99.90
18191;DHT22;47004;51.366;12.348;2022-10-22T08:29:26;14.30;99.90
18191;DHT22;47004;51.366;12.348;2022-10-22T08:31:27;14.30;99.90
18191;DHT22;47004;51.366;12.348;2022-10-22T08:33:29;14.20;99.90
18191;DHT22;47004;51.366;12.348;2022-10-22T08:35:33;14.30;99.90
18191;DHT22;47004;51.366;12.348;2022-10-22T08:37:37;14.30;99.90
18191;DHT22;47004;51.366;12.348;2022-10-22T08:39:39;14.40;99.90
18191;DHT22;47004;51.366;12.348;2022-10-22T08:41:47;14.30;99.90
18191;DHT22;47004;51.366;12.348;2022-10-22T08:44:18;14.30;99.90
18191;DHT22;47004;51.366;12.348;2022-10-22T08:46:43;14.20;99.90
18191;DHT22;47004;51.366;12.348;2022-10-22T08:48:50;14.30;99.90
18191;DHT22;47004;51.366;12.348;2022-10-22T08:50:56;14.20;99.90
18191;DHT22;47004;51.366;12.348;2022-10-22T08:53:01;14.30;99.90
18191;DHT22;47004;51.366;12.348;2022-10-22T08:55:07;14.40;99.90
18191;DHT22;47004;51.366;12.348;2022-10-22T08:57:19;14.30;99.90
18191;DHT22;47004;51.366;12.348;2022-10-22T08:59:28;14.30;99.90
18191;DHT22;47004;51.366;12.348;2022-10-22T09:01:34;14.30;99.90
18191;DHT22;47004;51.366;12.348;2022-10-22T09:03:44;14.30;99.90
18191;DHT22;47004;51.366;12.348;2022-10-22T09:06:00;14.30;99.90
18191;DHT22;47004;51.366;12.348;2022-10-22T09:08:04;14.20;99.90
18191;DHT22;47004;51.366;12.348;2022-10-22T09:10:08;14.40;99.90
18191;DHT22;47004;51.366;12.348;2022-10-22T09:12:15;14.40;99.90
18191;DHT22;47004;51.366;12.348;2022-10-22T09:14:19;14.40;99.90
18191;DHT22;47004;51.366;12.348;2022-10-22T09:16:30;14.40;99.90
18191;DHT22;47004;51.366;12.348;2022-10-22T09:18:40;14.50;99.90
18191;DHT22;47004;51.366;12.348;2022-10-22T09:20:47;14.50;99.90
18191;DHT22;47004;51.366;12.348;2022-10-22T09:22:57;14.50;99.90
18191;DHT22;47004;51.366;12.348;2022-10-22T09:25:13;14.50;99.90
18191;DHT22;47004;51.366;12.348;2022-10-22T09:27:18;14.60;99.90
18191;DHT22;47004;51.366;12.348;2022-10-22T09:29:23;14.60;99.90
18191;DHT22;47004;51.366;12.348;2022-10-22T09:31:38;14.60;99.90
18191;DHT22;47004;51.366;12.348;2022-10-22T09:33:45;14.70;99.90
18191;DHT22;47004;51.366;12.348;2022-10-22T09:35:51;14.70;99.90
18191;DHT22;47004;51.366;12.348;2022-10-22T09:37:55;14.80;99.90
18191;DHT22;47004;51.366;12.348;2022-10-22T09:40:03;14.90;99.90
18191;DHT22;47004;51.366;12.348;2022-10-22T09:42:09;14.90;99.90
18191;DHT22;47004;51.366;12.348;2022-10-22T09:44:12;14.80;99.90
18191;DHT22;47004;51.366;12.348;2022-10-22T09:46:16;14.80;99.90
18191;DHT22;47004;51.366;12.348;2022-10-22T09:48:20;14.80;99.90
18191;DHT22;47004;51.366;12.348;2022-10-22T09:50:27;14.80;99.90
18191;DHT22;47004;51.366;12.348;2022-10-22T09:52:33;14.90;99.90
18191;DHT22;47004;51.366;12.348;2022-10-22T09:54:41;14.90;99.90
18191;DHT22;47004;51.366;12.348;2022-10-22T09:56:49;14.90;99.90
18191;DHT22;47004;51.366;12.348;2022-10-22T09:58:56;14.90;99.90
18191;DHT22;47004;51.366;12.348;2022-10-22T10:00:59;14.90;99.90
18191;DHT22;47004;51.366;12.348;2022-10-22T10:03:01;15.00;99.90
18191;DHT22;47004;51.366;12.348;2022-10-22T10:05:04;15.00;99.90
18191;DHT22;47004;51.366;12.348;2022-10-22T10:07:14;15.00;99.90
18191;DHT22;47004;51.366;12.348;2022-10-22T10:09:19;15.10;99.90
18191;DHT22;47004;51.366;12.348;2022-10-22T10:11:27;15.10;99.90
18191;DHT22;47004;51.366;12.348;2022-10-22T10:13:42;15.10;99.90
18191;DHT22;47004;51.366;12.348;2022-10-22T10:15:53;15.20;99.90
18191;DHT22;47004;51.366;12.348;2022-10-22T10:18:02;15.20;99.90
18191;DHT22;47004;51.366;12.348;2022-10-22T10:20:21;15.30;99.90
18191;DHT22;47004;51.366;12.348;2022-10-22T10:22:35;15.30;99.90
18191;DHT22;47004;51.366;12.348;2022-10-22T10:24:51;15.40;99.90
18191;DHT22;47004;51.366;12.348;2022-10-22T10:27:03;15.50;99.90
18191;DHT22;47004;51.366;12.348;2022-10-22T10:29:18;15.50;99.90
18191;DHT22;47004;51.366;12.348;2022-10-22T10:31:37;15.60;99.90
18191;DHT22;47004;51.366;12.348;2022-10-22T10:33:45;15.70;99.90
18191;DHT22;47004;51.366;12.348;2022-10-22T10:35:55;15.70;99.90
18191;DHT22;47004;51.366;12.348;2022-10-22T10:38:14;15.80;99.90
18191;DHT22;47004;51.366;12.348;2022-10-22T10:40:26;15.90;99.90
18191;DHT22;47004;51.366;12.348;2022-10-22T10:42:35;15.90;99.90
18191;DHT22;47004;51.366;12.348;2022-10-22T10:44:47;16.00;99.90
18191;DHT22;47004;51.366;12.348;2022-10-22T10:46:59;16.10;99.90
18191;DHT22;47004;51.366;12.348;2022-10-22T10:49:08;16.20;99.90
18191;DHT22;47004;51.366;12.348;2022-10-22T10:51:20;16.30;99.90
18191;DHT22;47004;51.366;12.348;2022-10-22T10:53:42;16.30;99.90
18191;DHT22;47004;51.366;12.348;2022-10-22T10:55:52;16.40;99.90
18191;DHT22;47004;51.366;12.348;2022-10-22T10:58:05;16.50;99.90
18191;DHT22;47004;51.366;12.348;2022-10-22T11:00:13;16.60;99.90
18191;DHT22;47004;51.366;12.348;2022-10-22T11:05:31;16.70;99.90
18191;DHT22;47004;51.366;12.348;2022-10-22T11:07:38;16.80;99.90
18191;DHT22;47004;51.366;12.348;2022-10-22T11:09:47;16.90;99.90
18191;DHT22;47004;51.366;12.348;2022-10-22T11:11:54;17.10;99.90
18191;DHT22;47004;51.366;12.348;2022-10-22T11:14:04;17.10;99.90
18191;DHT22;47004;51.366;12.348;2022-10-22T11:16:18;17.20;99.90
18191;DHT22;47004;51.366;12.348;2022-10-22T11:18:25;17.30;99.90
18191;DHT22;47004;51.366;12.348;2022-10-22T11:20:35;17.40;99.90
18191;DHT22;47004;51.366;12.348;2022-10-22T11:22:42;17.50;99.90
18191;DHT22;47004;51.366;12.348;2022-10-22T11:24:55;17.60;99.90
18191;DHT22;47004;51.366;12.348;2022-10-22T11:27:03;17.70;99.90
18191;DHT22;47004;51.366;12.348;2022-10-22T11:29:12;17.80;99.90
18191;DHT22;47004;51.366;12.348;2022-10-22T11:31:17;17.90;99.90
18191;DHT22;47004;51.366;12.348;2022-10-22T11:33:22;17.90;99.90
18191;DHT22;47004;51.366;12.348;2022-10-22T11:35:26;18.00;99.90
18191;DHT22;47004;51.366;12.348;2022-10-22T11:37:31;18.20;99.90
18191;DHT22;47004;51.366;12.348;2022-10-22T11:39:39;18.30;99.90
18191;DHT22;47004;51.366;12.348;2022-10-22T11:41:44;18.40;99.90
18191;DHT22;47004;51.366;12.348;2022-10-22T11:43:57;18.50;99.90
18191;DHT22;47004;51.366;12.348;2022-10-22T11:46:28;18.70;99.90
18191;DHT22;47004;51.366;12.348;2022-10-22T11:48:37;18.80;99.90
18191;DHT22;47004;51.366;12.348;2022-10-22T11:50:49;18.90;99.90
18191;DHT22;47004;51.366;12.348;2022-10-22T11:53:03;19.10;99.90
18191;DHT22;47004;51.366;12.348;2022-10-22T11:55:32;19.30;99.90
18191;DHT22;47004;51.366;12.348;2022-10-22T11:57:36;19.50;99.90
18191;DHT22;47004;51.366;12.348;2022-10-22T11:59:43;19.60;99.90
18191;DHT22;47004;51.366;12.348;2022-10-22T12:01:47;19.70;99.90
18191;DHT22;47004;51.366;12.348;2022-10-22T12:03:52;19.90;99.90
18191;DHT22;47004;51.366;12.348;2022-10-22T12:06:15;20.00;99.90
18191;DHT22;47004;51.366;12.348;2022-10-22T12:08:23;20.10;99.90
18191;DHT22;47004;51.366;12.348;2022-10-22T12:10:34;20.20;99.90
18191;DHT22;47004;51.366;12.348;2022-10-22T12:12:38;20.40;99.90
18191;DHT22;47004;51.366;12.348;2022-10-22T12:14:52;20.50;99.90
18191;DHT22;47004;51.366;12.348;2022-10-22T12:17:01;20.70;99.90
18191;DHT22;47004;51.366;12.348;2022-10-22T12:19:11;20.80;99.90
18191;DHT22;47004;51.366;12.348;2022-10-22T12:21:14;20.90;99.90
18191;DHT22;47004;51.366;12.348;2022-10-22T12:23:17;20.90;99.90
18191;DHT22;47004;51.366;12.348;2022-10-22T12:25:24;20.80;99.90
18191;DHT22;47004;51.366;12.348;2022-10-22T12:27:32;20.70;99.90
18191;DHT22;47004;51.366;12.348;2022-10-22T12:29:34;20.70;99.90
18191;DHT22;47004;51.366;12.348;2022-10-22T12:31:39;20.80;99.90
18191;DHT22;47004;51.366;12.348;2022-10-22T12:33:42;20.90;99.90
18191;DHT22;47004;51.366;12.348;2022-10-22T12:35:45;21.00;99.90
18191;DHT22;47004;51.366;12.348;2022-10-22T12:37:49;21.00;99.90
18191;DHT22;47004;51.366;12.348;2022-10-22T12:39:51;21.20;99.90
18191;DHT22;47004;51.366;12.348;2022-10-22T12:41:54;21.20;99.90
18191;DHT22;47004;51.366;12.348;2022-10-22T12:43:58;21.30;99.90
18191;DHT22;47004;51.366;12.348;2022-10-22T12:46:03;21.20;99.90
18191;DHT22;47004;51.366;12.348;2022-10-22T12:48:15;21.20;99.90
18191;DHT22;47004;51.366;12.348;2022-10-22T12:50:28;21.20;99.90
18191;DHT22;47004;51.366;12.348;2022-10-22T12:52:32;21.00;99.90
18191;DHT22;47004;51.366;12.348;2022-10-22T12:54:35;21.20;99.90
18191;DHT22;47004;51.366;12.348;2022-10-22T12:56:37;21.20;99.90
18191;DHT22;47004;51.366;12.348;2022-10-22T12:58:43;21.30;99.90
18191;DHT22;47004;51.366;12.348;2022-10-22T13:00:46;21.40;99.90
18191;DHT22;47004;51.366;12.348;2022-10-22T13:02:48;21.40;99.90
18191;DHT22;47004;51.366;12.348;2022-10-22T13:05:13;21.50;99.90